createdAt,value
2023-03-19T00:00:52.870Z,8.50
2023-03-19T00:03:24.680Z,7.60
2023-03-19T00:05:56.460Z,10.67
2023-03-19T00:08:28.500Z,9.30
2023-03-19T00:11:06.741Z,9.00
2023-03-19T00:13:39.461Z,9.03
2023-03-19T00:16:11.442Z,9.50
2023-03-19T00:18:43.622Z,9.53
2023-03-19T00:21:15.542Z,10.17
2023-03-19T00:23:47.247Z,10.87
2023-03-19T00:26:19.194Z,10.07
2023-03-19T00:28:50.915Z,10.13
2023-03-19T00:31:23.490Z,9.87
2023-03-19T00:33:58.151Z,9.40
2023-03-19T00:36:30.274Z,8.93
2023-03-19T00:39:02.113Z,10.67
2023-03-19T00:41:33.923Z,9.40
2023-03-19T00:44:06.702Z,10.20
2023-03-19T00:46:38.429Z,9.60
2023-03-19T00:49:10.649Z,8.50
2023-03-19T00:51:44.056Z,10.67
2023-03-19T00:54:15.986Z,10.50
2023-03-19T00:56:47.868Z,11.47
2023-03-19T00:59:19.569Z,12.33
2023-03-19T01:01:51.689Z,13.97
2023-03-19T01:04:23.643Z,13.27
2023-03-19T01:06:55.520Z,12.20
2023-03-19T01:09:27.467Z,10.20
2023-03-19T01:11:59.300Z,9.47
2023-03-19T01:14:32.111Z,9.67
2023-03-19T01:17:03.904Z,5.30
2023-03-19T01:19:35.698Z,5.50
2023-03-19T01:22:07.606Z,5.60
2023-03-19T01:24:39.413Z,4.33
2023-03-19T01:27:11.345Z,5.30
2023-03-19T01:29:43.206Z,4.97
2023-03-19T01:32:15.015Z,4.90
2023-03-19T01:34:47.028Z,5.20
2023-03-19T01:37:19.258Z,4.80
2023-03-19T01:39:51.076Z,4.17
2023-03-19T01:42:22.855Z,4.20
2023-03-19T01:44:54.749Z,4.53
2023-03-19T01:47:36.740Z,4.60
2023-03-19T01:50:25.918Z,4.40
2023-03-19T01:52:57.839Z,4.87
2023-03-19T01:55:29.845Z,6.10
2023-03-19T01:58:02.588Z,4.67
2023-03-19T02:00:35.850Z,4.80
2023-03-19T02:03:08.123Z,4.97
2023-03-19T02:05:42.609Z,5.20
2023-03-19T02:08:16.919Z,5.37
2023-03-19T02:10:49.885Z,6.30
2023-03-19T02:13:22.994Z,5.70
2023-03-19T02:15:55.387Z,5.37
2023-03-19T02:18:27.270Z,6.20
2023-03-19T02:21:06.821Z,6.27
2023-03-19T02:23:55.855Z,5.57
2023-03-19T02:26:29.933Z,6.93
2023-03-19T02:29:01.793Z,6.87
2023-03-19T02:31:33.945Z,8.13
2023-03-19T02:34:27.196Z,7.10
2023-03-19T02:37:03.194Z,6.50
2023-03-19T02:40:31.098Z,6.00
2023-03-19T02:43:02.961Z,6.43
2023-03-19T02:45:34.776Z,7.07
2023-03-19T02:48:06.834Z,7.13
2023-03-19T02:50:38.658Z,6.50
2023-03-19T02:53:10.397Z,7.20
2023-03-19T02:55:42.970Z,6.80
2023-03-19T02:58:14.751Z,6.27
2023-03-19T03:00:46.645Z,7.50
2023-03-19T03:03:18.549Z,8.47
2023-03-19T03:05:50.384Z,8.50
2023-03-19T03:08:22.864Z,9.00
2023-03-19T03:10:54.671Z,9.10
2023-03-19T03:13:27.110Z,8.17
2023-03-19T03:15:59.060Z,7.73
2023-03-19T03:18:31.366Z,7.83
2023-03-19T03:21:03.618Z,8.03
2023-03-19T03:23:36.655Z,7.17
2023-03-19T03:26:08.444Z,8.10
2023-03-19T03:28:40.552Z,7.77
2023-03-19T03:31:13.707Z,9.10
2023-03-19T03:33:45.990Z,8.63
2023-03-19T03:36:18.391Z,8.23
2023-03-19T03:38:50.349Z,8.00
2023-03-19T03:41:22.281Z,7.73
2023-03-19T03:43:54.094Z,7.83
2023-03-19T03:46:25.857Z,7.47
2023-03-19T03:48:57.699Z,8.17
2023-03-19T03:51:29.532Z,7.03
2023-03-19T03:54:01.364Z,7.70
2023-03-19T03:56:34.092Z,8.17
2023-03-19T03:59:05.796Z,8.80
2023-03-19T04:01:37.561Z,7.30
2023-03-19T04:04:09.378Z,7.93
2023-03-19T04:06:41.283Z,7.30
2023-03-19T04:09:13.215Z,6.90
2023-03-19T04:11:45.000Z,6.97
2023-03-19T04:14:17.125Z,7.87
2023-03-19T04:16:49.064Z,7.87
2023-03-19T04:19:20.997Z,7.87
2023-03-19T04:21:52.764Z,8.60
2023-03-19T04:24:25.815Z,7.37
2023-03-19T04:26:57.623Z,8.20
2023-03-19T04:29:29.512Z,9.00
2023-03-19T04:32:01.527Z,7.43
2023-03-19T04:34:33.355Z,8.03
2023-03-19T04:37:05.291Z,8.00
2023-03-19T04:39:37.733Z,7.90
2023-03-19T04:42:09.636Z,8.00
2023-03-19T04:44:42.064Z,7.97
2023-03-19T04:47:13.895Z,7.87
2023-03-19T04:49:45.705Z,8.37
2023-03-19T04:52:17.721Z,8.00
2023-03-19T04:54:49.391Z,7.97
2023-03-19T04:57:21.382Z,8.17
2023-03-19T04:59:53.148Z,7.33
2023-03-19T05:02:26.141Z,7.57
2023-03-19T05:04:57.917Z,7.25
2023-03-19T05:07:29.625Z,8.10
2023-03-19T05:10:01.605Z,6.43
2023-03-19T05:12:33.990Z,6.97
2023-03-19T05:15:06.258Z,7.40
2023-03-19T05:17:38.063Z,7.30
2023-03-19T05:20:12.737Z,6.97
2023-03-19T05:22:44.467Z,8.00
2023-03-19T05:25:16.362Z,6.93
2023-03-19T05:27:48.536Z,6.53
2023-03-19T05:30:20.374Z,7.73
2023-03-19T05:32:53.101Z,7.20
2023-03-19T05:35:26.563Z,6.57
2023-03-19T05:37:58.566Z,6.60
2023-03-19T05:40:30.309Z,7.57
2023-03-19T05:43:02.056Z,7.20
2023-03-19T05:45:33.885Z,8.03
2023-03-19T05:48:06.240Z,6.80
2023-03-19T05:50:38.197Z,7.87
2023-03-19T05:53:09.948Z,6.80
2023-03-19T05:55:42.497Z,6.83
2023-03-19T05:58:14.798Z,6.90
2023-03-19T06:00:48.458Z,7.33
2023-03-19T06:03:20.213Z,6.83
2023-03-19T06:05:52.946Z,6.97
2023-03-19T06:08:24.723Z,7.00
2023-03-19T06:10:56.628Z,6.73
2023-03-19T06:13:28.457Z,7.20
2023-03-19T06:16:00.948Z,6.60
2023-03-19T06:18:33.488Z,6.60
2023-03-19T06:21:05.879Z,7.10
2023-03-19T06:23:37.710Z,6.57
2023-03-19T06:26:09.450Z,6.60
2023-03-19T06:28:41.155Z,6.60
2023-03-19T06:31:12.965Z,6.50
2023-03-19T06:33:44.836Z,6.83
2023-03-19T06:36:17.708Z,6.83
2023-03-19T06:38:49.545Z,6.00
2023-03-19T06:41:21.325Z,6.77
2023-03-19T06:43:53.277Z,8.93
2023-03-19T06:46:25.111Z,7.27
2023-03-19T06:48:57.352Z,7.20
2023-03-19T06:51:29.200Z,7.40
2023-03-19T06:54:01.029Z,7.65
2023-03-19T06:56:32.844Z,7.77
2023-03-19T06:59:05.202Z,7.00
2023-03-19T07:01:37.428Z,8.20
2023-03-19T07:04:09.686Z,7.00
2023-03-19T07:06:41.474Z,7.33
2023-03-19T07:09:13.814Z,6.83
2023-03-19T07:11:45.662Z,7.63
2023-03-19T07:14:17.321Z,8.20
2023-03-19T07:16:49.119Z,7.43
2023-03-19T07:19:20.997Z,7.03
2023-03-19T07:21:52.838Z,6.97
2023-03-19T07:24:24.693Z,6.13
2023-03-19T07:26:57.264Z,6.90
2023-03-19T07:29:29.145Z,6.90
2023-03-19T07:32:00.834Z,7.10
2023-03-19T07:34:32.677Z,7.20
2023-03-19T07:37:04.522Z,6.30
2023-03-19T07:39:36.422Z,5.50
2023-03-19T07:42:08.251Z,6.20
2023-03-19T07:44:40.023Z,6.00
2023-03-19T07:47:27.921Z,6.70
2023-03-19T07:50:00.738Z,5.78
2023-03-19T07:52:32.532Z,5.83
2023-03-19T07:55:04.660Z,5.77
2023-03-19T07:57:36.507Z,4.83
2023-03-19T08:00:10.592Z,5.53
2023-03-19T08:02:42.880Z,5.90
2023-03-19T08:05:14.713Z,7.93
2023-03-19T08:07:47.254Z,5.17
2023-03-19T08:10:19.092Z,4.50
2023-03-19T08:12:50.952Z,4.70
2023-03-19T08:15:22.835Z,4.47
2023-03-19T08:17:59.173Z,5.57
2023-03-19T08:20:32.018Z,4.17
2023-03-19T08:23:04.442Z,5.80
2023-03-19T08:25:36.222Z,5.53
2023-03-19T08:28:09.819Z,6.20
2023-03-19T08:30:42.076Z,5.10
2023-03-19T08:33:13.989Z,6.37
2023-03-19T08:35:45.969Z,5.80
2023-03-19T08:38:18.050Z,5.80
2023-03-19T08:40:49.747Z,6.23
2023-03-19T08:43:21.500Z,6.07
2023-03-19T08:45:53.348Z,6.30
2023-03-19T08:48:25.241Z,5.70
2023-03-19T08:51:02.547Z,5.90
2023-03-19T08:53:34.365Z,6.23
2023-03-19T08:56:07.935Z,6.37
2023-03-19T08:58:41.549Z,5.90
2023-03-19T09:01:14.605Z,6.93
2023-03-19T09:03:46.479Z,5.77
2023-03-19T09:06:18.234Z,6.20
2023-03-19T09:08:49.984Z,5.80
2023-03-19T09:11:23.405Z,4.70
2023-03-19T09:13:55.252Z,5.37
2023-03-19T09:16:27.173Z,5.40
2023-03-19T09:18:59.531Z,5.93
2023-03-19T09:21:31.606Z,4.90
2023-03-19T09:24:04.357Z,5.50
2023-03-19T09:26:36.223Z,4.60
2023-03-19T09:29:08.126Z,5.40
2023-03-19T09:31:40.306Z,5.03
2023-03-19T09:34:13.895Z,4.40
2023-03-19T09:36:45.776Z,5.20
2023-03-19T09:39:17.635Z,4.60
2023-03-19T09:42:07.986Z,4.13
2023-03-19T09:44:44.074Z,4.20
2023-03-19T09:47:25.811Z,3.50
2023-03-19T09:50:02.139Z,4.70
2023-03-19T09:52:54.957Z,3.40
2023-03-19T09:55:44.660Z,3.60
2023-03-19T09:58:28.070Z,4.00
2023-03-19T10:01:01.065Z,2.97
2023-03-19T10:03:56.129Z,4.10
2023-03-19T10:06:37.932Z,3.33
2023-03-19T10:09:18.414Z,3.50
2023-03-19T10:12:20.779Z,3.50
2023-03-19T10:15:18.206Z,3.17
2023-03-19T10:17:56.975Z,3.30
2023-03-19T10:20:36.588Z,3.00
2023-03-19T10:23:46.177Z,3.47
2023-03-19T10:26:21.651Z,3.40
2023-03-19T10:29:10.038Z,3.77
2023-03-19T10:31:59.585Z,3.43
2023-03-19T10:34:35.769Z,3.58
2023-03-19T10:37:13.529Z,3.80
2023-03-19T10:39:47.538Z,3.77
2023-03-19T10:42:38.503Z,3.23
2023-03-19T10:45:19.222Z,3.70
2023-03-19T10:47:52.218Z,3.57
2023-03-19T10:50:41.779Z,4.10
2023-03-19T10:53:13.422Z,3.50
2023-03-19T10:55:55.176Z,3.17
2023-03-19T10:58:29.977Z,3.10
2023-03-19T11:01:04.999Z,3.30
2023-03-19T11:03:50.508Z,2.70
2023-03-19T11:06:36.893Z,3.13
2023-03-19T11:09:08.617Z,3.10
2023-03-19T11:11:53.523Z,3.60
2023-03-19T11:14:47.674Z,4.47
2023-03-19T11:17:39.565Z,4.37
2023-03-19T11:20:23.707Z,4.03
2023-03-19T11:23:02.098Z,3.53
2023-03-19T11:25:46.840Z,3.70
2023-03-19T11:28:25.961Z,3.17
2023-03-19T11:31:19.476Z,3.00
2023-03-19T11:34:00.031Z,3.43
2023-03-19T11:36:44.415Z,3.30
2023-03-19T11:39:36.003Z,3.97
2023-03-19T11:42:24.099Z,3.70
2023-03-19T11:45:11.104Z,2.93
2023-03-19T11:47:59.333Z,4.10
2023-03-19T11:51:05.720Z,3.47
2023-03-19T11:53:48.669Z,3.50
2023-03-19T11:56:48.168Z,3.63
2023-03-19T11:59:25.842Z,4.00
2023-03-19T12:02:16.238Z,3.83
2023-03-19T12:05:19.454Z,3.60
2023-03-19T12:08:22.343Z,3.40
2023-03-19T12:11:17.399Z,3.80
2023-03-19T12:13:59.170Z,3.60
2023-03-19T12:16:44.177Z,3.13
2023-03-19T12:19:28.144Z,3.50
2023-03-19T12:22:05.676Z,5.47
2023-03-19T12:25:16.310Z,3.70
2023-03-19T12:27:56.546Z,4.63
2023-03-19T12:30:59.092Z,4.30
2023-03-19T12:33:52.206Z,3.90
2023-03-19T12:36:32.102Z,4.10
2023-03-19T12:39:13.088Z,4.33
2023-03-19T12:41:48.470Z,3.33
2023-03-19T12:44:36.377Z,3.57
2023-03-19T12:47:19.732Z,3.80
2023-03-19T12:49:59.310Z,3.30
2023-03-19T12:52:40.018Z,3.70
2023-03-19T12:55:22.238Z,3.80
2023-03-19T12:58:11.837Z,3.30
2023-03-19T13:00:53.514Z,3.50
2023-03-19T13:03:37.615Z,3.00
2023-03-19T13:06:30.180Z,2.93
2023-03-19T13:09:24.880Z,2.90
2023-03-19T13:12:12.658Z,2.97
2023-03-19T13:15:14.755Z,3.00
2023-03-19T13:18:22.886Z,3.10
2023-03-19T13:21:20.276Z,2.40
2023-03-19T13:24:00.996Z,2.40
2023-03-19T13:26:34.730Z,2.40
2023-03-19T13:29:06.357Z,3.20
2023-03-19T13:31:38.445Z,2.40
2023-03-19T13:34:20.163Z,2.70
2023-03-19T13:36:59.505Z,2.77
2023-03-19T13:39:34.084Z,2.40
2023-03-19T13:42:42.509Z,1.88
2023-03-19T13:45:20.455Z,2.17
2023-03-19T13:47:54.724Z,2.90
2023-03-19T13:50:29.299Z,3.20
2023-03-19T13:53:34.059Z,3.30
2023-03-19T13:56:29.074Z,3.13
2023-03-19T13:59:24.197Z,3.10
2023-03-19T14:01:57.188Z,3.10
2023-03-19T14:04:32.188Z,3.17
2023-03-19T14:07:19.523Z,2.30
2023-03-19T14:09:57.509Z,2.90
2023-03-19T14:12:38.080Z,3.07
2023-03-19T14:15:09.889Z,2.43
2023-03-19T14:17:53.884Z,2.90
2023-03-19T14:20:40.324Z,3.03
2023-03-19T14:23:26.922Z,2.33
2023-03-19T14:26:16.537Z,2.00
2023-03-19T14:28:57.302Z,2.23
2023-03-19T14:31:47.583Z,2.20
2023-03-19T14:34:38.953Z,2.00
2023-03-19T14:37:25.675Z,3.23
2023-03-19T14:40:10.038Z,2.83
2023-03-19T14:43:00.840Z,3.70
2023-03-19T14:46:04.431Z,3.00
2023-03-19T14:49:06.526Z,3.00
2023-03-19T14:51:53.022Z,3.27
2023-03-19T14:54:34.153Z,3.60
2023-03-19T14:57:08.432Z,3.37
2023-03-19T14:59:40.380Z,3.80
2023-03-19T15:02:21.106Z,3.27
2023-03-19T15:04:54.859Z,3.17
2023-03-19T15:07:38.689Z,2.87
2023-03-19T15:10:22.424Z,3.40
2023-03-19T15:13:02.140Z,3.40
2023-03-19T15:16:01.693Z,3.10
2023-03-19T15:18:35.734Z,3.37
2023-03-19T15:21:07.551Z,3.20
2023-03-19T15:23:45.008Z,3.37
2023-03-19T15:26:30.260Z,3.40
2023-03-19T15:29:04.154Z,4.27
2023-03-19T15:32:02.265Z,4.00
2023-03-19T15:34:37.365Z,2.70
2023-03-19T15:37:15.348Z,3.00
2023-03-19T15:39:52.444Z,3.70
2023-03-19T15:42:27.563Z,3.20
2023-03-19T15:45:07.484Z,3.73
2023-03-19T15:47:46.663Z,2.83
2023-03-19T15:50:31.725Z,3.00
2023-03-19T15:53:08.783Z,3.77
2023-03-19T15:55:40.888Z,3.50
2023-03-19T15:58:17.758Z,3.80
2023-03-19T16:00:53.213Z,3.90
2023-03-19T16:03:45.880Z,4.03
2023-03-19T16:06:27.633Z,3.80
2023-03-19T16:09:19.605Z,4.13
2023-03-19T16:11:52.205Z,4.50
2023-03-19T16:14:43.580Z,4.67
2023-03-19T16:17:17.795Z,4.60
2023-03-19T16:20:00.213Z,4.83
2023-03-19T16:22:32.932Z,5.20
2023-03-19T16:25:13.274Z,4.57
2023-03-19T16:27:46.396Z,5.27
2023-03-19T16:30:27.943Z,4.10
2023-03-19T16:33:01.237Z,4.97
2023-03-19T16:35:34.566Z,5.20
2023-03-19T16:38:22.159Z,4.83
2023-03-19T16:41:18.949Z,5.05
2023-03-19T16:43:53.229Z,5.13
2023-03-19T16:46:26.154Z,5.17
2023-03-19T16:48:57.889Z,5.37
2023-03-19T16:51:29.638Z,5.70
2023-03-19T16:54:01.666Z,5.47
2023-03-19T16:56:33.765Z,5.50
2023-03-19T16:59:06.172Z,5.53
2023-03-19T17:01:38.691Z,5.47
2023-03-19T17:04:17.588Z,5.97
2023-03-19T17:06:50.043Z,7.37
2023-03-19T17:09:23.341Z,6.70
2023-03-19T17:11:55.600Z,6.10
2023-03-19T17:14:27.919Z,5.10
2023-03-19T17:16:59.860Z,5.50
2023-03-19T17:19:35.448Z,5.37
2023-03-19T17:22:09.393Z,5.40
2023-03-19T17:24:41.269Z,5.07
2023-03-19T17:27:13.041Z,4.60
2023-03-19T17:29:44.775Z,4.50
2023-03-19T17:32:19.072Z,5.40
2023-03-19T17:34:51.076Z,6.40
2023-03-19T17:37:22.873Z,5.10
2023-03-19T17:39:54.769Z,6.23
2023-03-19T17:42:26.869Z,5.30
2023-03-19T17:45:00.841Z,6.30
2023-03-19T17:47:34.337Z,5.70
2023-03-19T17:50:08.250Z,5.20
2023-03-19T17:52:40.195Z,5.27
2023-03-19T17:55:19.420Z,5.07
2023-03-19T17:57:52.509Z,5.00
2023-03-19T18:00:24.942Z,3.93
2023-03-19T18:02:57.055Z,4.38
2023-03-19T18:05:28.850Z,7.30
2023-03-19T18:08:00.947Z,21.57
2023-03-19T18:10:34.661Z,10.23
2023-03-19T18:13:07.525Z,27.38
2023-03-19T18:15:42.194Z,24.20
2023-03-19T18:18:17.918Z,47.87
2023-03-19T18:20:50.224Z,19.47
2023-03-19T18:23:23.986Z,7.33
2023-03-19T18:25:55.823Z,4.90
2023-03-19T18:28:27.618Z,5.10
2023-03-19T18:31:00.612Z,4.07
2023-03-19T18:33:33.144Z,3.57
2023-03-19T18:36:05.809Z,3.40
2023-03-19T18:38:37.636Z,3.08
2023-03-19T18:41:17.358Z,4.20
2023-03-19T18:43:49.176Z,6.07
2023-03-19T18:46:28.658Z,6.27
2023-03-19T18:49:25.274Z,5.53
2023-03-19T18:52:04.575Z,3.35
2023-03-19T18:54:36.361Z,4.03
2023-03-19T18:57:12.206Z,3.90
2023-03-19T18:59:44.192Z,2.97
2023-03-19T19:02:28.545Z,3.87
2023-03-19T19:05:01.379Z,3.77
2023-03-19T19:07:33.096Z,5.80
2023-03-19T19:10:05.367Z,4.47
2023-03-19T19:12:40.443Z,5.17
2023-03-19T19:18:58.347Z,9.75
2023-03-19T19:25:25.538Z,8.60
2023-03-19T19:31:49.591Z,7.83
2023-03-19T19:34:22.621Z,6.83
2023-03-19T19:36:57.718Z,7.20
2023-03-19T19:39:29.501Z,7.33
2023-03-19T19:42:01.404Z,7.10
2023-03-19T19:44:33.200Z,7.40
2023-03-19T19:47:13.484Z,9.40
2023-03-19T19:49:45.960Z,8.50
2023-03-19T19:52:19.458Z,7.70
2023-03-19T19:54:52.017Z,9.90
2023-03-19T19:57:24.965Z,10.27
2023-03-19T19:59:56.884Z,9.93
2023-03-19T20:02:29.413Z,7.07
2023-03-19T20:05:01.236Z,7.37
2023-03-19T20:07:32.960Z,7.67
2023-03-19T20:10:05.118Z,8.57
2023-03-19T20:12:36.982Z,7.73
2023-03-19T20:15:34.180Z,7.23
2023-03-19T20:18:06.648Z,7.20
2023-03-19T20:20:38.421Z,7.00
2023-03-19T20:23:12.048Z,8.07
2023-03-19T20:25:45.697Z,8.57
2023-03-19T20:28:26.287Z,8.47
2023-03-19T20:30:58.566Z,8.50
2023-03-19T20:33:31.489Z,8.20
2023-03-19T20:36:04.512Z,9.10
2023-03-19T20:38:36.675Z,7.73
2023-03-19T20:41:20.998Z,7.80
2023-03-19T20:43:53.886Z,8.10
2023-03-19T20:46:25.844Z,8.53
2023-03-19T20:48:58.023Z,8.80
2023-03-19T20:51:31.589Z,8.50
2023-03-19T20:54:04.836Z,7.90
2023-03-19T20:56:37.712Z,7.83
2023-03-19T20:59:11.852Z,7.73
2023-03-19T21:01:43.683Z,11.60
2023-03-19T21:04:19.634Z,9.90
2023-03-19T21:06:53.906Z,7.97
2023-03-19T21:09:26.019Z,7.83
2023-03-19T21:11:57.784Z,9.80
2023-03-19T21:14:29.553Z,9.13
2023-03-19T21:17:01.344Z,9.10
2023-03-19T21:19:33.078Z,12.07
2023-03-19T21:22:06.040Z,9.77
2023-03-19T21:24:37.854Z,9.40
2023-03-19T21:27:24.029Z,8.50
2023-03-19T21:29:55.997Z,8.57
2023-03-19T21:32:27.870Z,8.40
2023-03-19T21:34:59.737Z,9.03
2023-03-19T21:37:31.763Z,9.87
2023-03-19T21:40:03.815Z,8.70
2023-03-19T21:42:37.957Z,9.75
2023-03-19T21:45:27.413Z,11.30
2023-03-19T21:48:21.083Z,9.37
2023-03-19T21:50:53.284Z,10.83
2023-03-19T21:53:25.391Z,11.60
2023-03-19T21:55:59.086Z,11.50
2023-03-19T21:58:36.230Z,10.50
2023-03-19T22:01:16.496Z,9.27
2023-03-19T22:03:48.824Z,9.43
2023-03-19T22:06:21.935Z,9.30
2023-03-19T22:08:54.277Z,8.37
2023-03-19T22:11:35.311Z,8.63
2023-03-19T22:14:09.825Z,10.32
2023-03-19T22:16:42.410Z,10.30
2023-03-19T22:19:19.212Z,9.10
2023-03-19T22:21:51.101Z,8.80
2023-03-19T22:24:22.798Z,7.60
2023-03-19T22:26:58.268Z,6.77
2023-03-19T22:29:31.853Z,7.40
2023-03-19T22:32:03.761Z,6.10
2023-03-19T22:34:35.742Z,6.97
2023-03-19T22:37:26.298Z,6.05
2023-03-19T22:39:58.110Z,7.00
2023-03-19T22:42:29.952Z,6.07
2023-03-19T22:45:01.864Z,5.47
2023-03-19T22:47:37.476Z,6.03
2023-03-19T22:50:17.501Z,6.17
2023-03-19T22:52:50.889Z,6.00
2023-03-19T22:55:23.292Z,5.33
2023-03-19T22:57:55.029Z,5.57
2023-03-19T23:00:26.894Z,5.03
2023-03-19T23:03:00.787Z,4.20
2023-03-19T23:05:35.038Z,4.67
2023-03-19T23:08:07.378Z,5.40
2023-03-19T23:10:39.707Z,5.10
2023-03-19T23:13:13.870Z,4.93
2023-03-19T23:15:47.377Z,5.30
2023-03-19T23:18:23.595Z,5.00
2023-03-19T23:20:56.759Z,5.20
2023-03-19T23:23:29.976Z,4.83
2023-03-19T23:26:02.396Z,5.43
2023-03-19T23:28:34.951Z,5.53
2023-03-19T23:31:10.050Z,6.13
2023-03-19T23:33:42.033Z,4.95
2023-03-19T23:36:14.026Z,5.90
2023-03-19T23:38:46.685Z,6.23
2023-03-19T23:41:24.938Z,5.67
2023-03-19T23:44:02.044Z,6.13
2023-03-19T23:46:35.006Z,5.47
2023-03-19T23:49:15.403Z,5.70
2023-03-19T23:51:47.725Z,5.40
2023-03-19T23:54:36.873Z,5.50
2023-03-19T23:57:14.139Z,6.87
2023-03-19T23:59:49.840Z,6.37
